Time;durP1;ratioP1;P1;durP2;ratioP2;P2;SDS_P1;SDS_P2;PMS_P1;PMS_P2;Temp;Humidity;BMP_temperature;BMP_pressure;BME280_temperature;BME280_humidity;BME280_pressure;Samples;Min_cycle;Max_cycle;Signal;HPM_P1;HPM_P2
2022/07/04 00:00:29;;;;;;;2.05;1.30;;;;;;;24.91;45.24;99574.06;4356877;32;33752;-88
2022/07/04 00:02:58;;;;;;;1.60;1.05;;;;;;;24.98;44.93;99574.44;4356951;32;33769;-88
2022/07/04 00:05:26;;;;;;;2.85;1.37;;;;;;;24.95;44.83;99574.69;4362418;32;33017;-88
2022/07/04 00:07:55;;;;;;;3.67;1.48;;;;;;;24.87;44.98;99577.91;4356704;32;34170;-88
2022/07/04 00:10:24;;;;;;;3.50;1.52;;;;;;;24.85;45.55;99574.53;4356989;32;32831;-88
2022/07/04 00:12:53;;;;;;;2.25;1.40;;;;;;;24.84;45.49;99578.16;4356402;32;33513;-88
2022/07/04 00:15:23;;;;;;;2.05;1.08;;;;;;;24.78;45.96;99580.41;4357201;32;34613;-88
2022/07/04 00:17:53;;;;;;;4.05;1.98;;;;;;;24.67;45.66;99579.41;4362346;32;32639;-88
2022/07/04 00:20:21;;;;;;;1.50;1.00;;;;;;;24.65;45.42;99581.31;4357166;32;32970;-88
2022/07/04 00:22:50;;;;;;;1.10;1.00;;;;;;;24.49;45.65;99580.72;4356812;32;33560;-88
2022/07/04 00:25:19;;;;;;;2.47;1.40;;;;;;;24.63;45.45;99582.37;4357067;32;33919;-88
2022/07/04 00:27:48;;;;;;;4.18;1.58;;;;;;;24.44;45.99;99581.03;4359395;32;33721;-88
2022/07/04 00:30:17;;;;;;;3.03;1.35;;;;;;;24.59;45.29;99581.75;4374597;32;33580;-88
2022/07/04 00:32:47;;;;;;;2.75;1.48;;;;;;;24.48;45.63;99581.69;4367870;32;34533;-88
2022/07/04 00:35:20;;;;;;;2.53;1.33;;;;;;;24.45;45.82;99576.56;4356595;32;34104;-88
2022/07/04 00:37:49;;;;;;;2.85;1.42;;;;;;;24.41;46.00;99580.41;4356829;32;35090;-88
2022/07/04 00:40:17;;;;;;;1.40;1.20;;;;;;;24.35;46.12;99579.03;4356557;32;34191;-88
2022/07/04 00:42:46;;;;;;;2.80;1.40;;;;;;;24.45;45.58;99572.13;4356795;32;34404;-88
2022/07/04 00:45:15;;;;;;;1.80;1.10;;;;;;;24.19;46.51;99578.47;4362219;32;33366;-88
2022/07/04 00:47:44;;;;;;;2.78;1.40;;;;;;;24.29;45.82;99574.19;4356606;32;34049;-88
2022/07/04 00:50:14;;;;;;;2.58;1.10;;;;;;;24.10;46.19;99577.31;4360166;32;33967;-88
2022/07/04 00:52:43;;;;;;;1.98;1.27;;;;;;;24.07;46.39;99572.22;4356737;32;33983;-88
2022/07/04 00:55:11;;;;;;;2.80;1.80;;;;;;;24.12;46.31;99572.75;4343129;32;32380;-88
2022/07/04 00:57:40;;;;;;;2.05;1.30;;;;;;;23.98;46.53;99572.88;4361873;32;34205;-88
2022/07/04 01:00:09;;;;;;;1.20;1.08;;;;;;;24.06;46.45;99575.81;4341847;32;33161;-88
2022/07/04 01:02:38;;;;;;;2.85;1.45;;;;;;;23.89;46.62;99570.88;4359992;32;34220;-89
2022/07/04 01:05:08;;;;;;;9.95;2.00;;;;;;;23.98;46.39;99579.03;4371477;32;33587;-88
2022/07/04 01:07:38;;;;;;;2.35;1.05;;;;;;;23.95;46.53;99578.41;4343811;32;33543;-88
2022/07/04 01:10:08;;;;;;;3.33;1.73;;;;;;;23.84;46.81;99576.50;4362001;32;32760;-88
2022/07/04 01:12:38;;;;;;;3.10;1.75;;;;;;;23.70;46.86;99580.06;4362122;32;33269;-88
2022/07/04 01:15:08;;;;;;;4.57;1.42;;;;;;;23.82;46.75;99575.75;4356485;32;33537;-87
2022/07/04 01:17:37;;;;;;;3.90;1.37;;;;;;;23.78;46.77;99577.78;4356445;32;32913;-87
2022/07/04 01:20:12;;;;;;;2.83;1.35;;;;;;;23.87;46.52;99581.56;4342825;32;32440;-88
2022/07/04 01:22:42;;;;;;;2.55;1.60;;;;;;;23.79;46.94;99571.50;4343554;32;34019;-87
2022/07/04 01:25:11;;;;;;;3.05;1.30;;;;;;;23.64;47.56;99591.09;4361804;32;34058;-88
2022/07/04 01:27:39;;;;;;;2.92;1.50;;;;;;;23.68;47.03;99586.41;4356753;32;33614;-88
2022/07/04 01:30:10;;;;;;;2.78;1.60;;;;;;;23.70;47.04;99587.16;4356364;32;33903;-88
2022/07/04 01:32:38;;;;;;;2.78;1.58;;;;;;;23.66;47.18;99586.53;4353091;32;33429;-88
2022/07/04 01:35:10;;;;;;;2.37;1.37;;;;;;;23.72;46.93;99570.22;4355891;32;33504;-88
2022/07/04 01:37:39;;;;;;;3.03;1.42;;;;;;;23.73;46.66;99584.31;4361794;32;33246;-88
2022/07/04 01:40:11;;;;;;;3.33;1.10;;;;;;;23.69;46.51;99582.84;4355213;32;34611;-88
2022/07/04 01:42:40;;;;;;;2.65;1.50;;;;;;;23.60;46.81;99579.84;4365020;32;34203;-88
2022/07/04 01:45:10;;;;;;;2.17;1.45;;;;;;;23.73;46.68;99577.25;4370120;32;34604;-88
2022/07/04 01:47:39;;;;;;;2.08;1.50;;;;;;;23.57;46.26;99580.06;4370975;32;33765;-88
2022/07/04 01:50:12;;;;;;;3.00;1.50;;;;;;;23.73;45.81;99576.38;4357542;32;31712;-88
2022/07/04 01:52:42;;;;;;;1.55;1.20;;;;;;;23.79;45.78;99582.09;4362863;32;33166;-88
2022/07/04 01:55:12;;;;;;;3.53;1.65;;;;;;;23.77;45.92;99591.97;4370865;32;33869;-88
2022/07/04 01:57:41;;;;;;;3.50;1.83;;;;;;;23.80;46.00;99582.94;4370908;32;34800;-88
2022/07/04 02:02:58;;;;;;;2.22;1.20;;;;;;;23.51;46.74;99591.09;4364092;32;34618;-88
2022/07/04 02:05:27;;;;;;;6.20;1.77;;;;;;;23.61;46.16;99592.16;4354958;32;34108;-89
2022/07/04 02:07:57;;;;;;;4.10;1.30;;;;;;;23.75;45.82;99588.59;4346482;33;34579;-88
2022/07/04 02:10:26;;;;;;;2.20;1.40;;;;;;;23.38;46.88;99593.72;4342254;32;32156;-88
2022/07/04 02:13:03;;;;;;;3.20;1.60;;;;;;;23.64;45.98;99589.28;4343600;32;33570;-88
2022/07/04 02:15:35;;;;;;;3.35;1.52;;;;;;;23.70;45.92;99595.94;4357354;32;33690;-88
2022/07/04 02:18:08;;;;;;;2.08;1.40;;;;;;;23.55;46.81;99586.44;4357553;32;33814;-88
2022/07/04 02:20:37;;;;;;;3.12;1.50;;;;;;;23.46;46.74;99590.53;4363228;32;33492;-88
2022/07/04 02:23:08;;;;;;;2.12;1.30;;;;;;;23.43;46.99;99588.94;4360366;32;33262;-88
2022/07/04 02:25:37;;;;;;;2.50;1.57;;;;;;;23.48;46.90;99586.00;4365356;32;34352;-88
2022/07/04 02:28:06;;;;;;;2.35;1.40;;;;;;;23.43;46.73;99588.09;4372620;32;33876;-88
2022/07/04 02:30:35;;;;;;;3.30;1.37;;;;;;;23.46;46.82;99584.41;4372427;32;32975;-88
2022/07/04 02:33:04;;;;;;;2.75;1.35;;;;;;;23.33;47.41;99582.59;4361595;32;33340;-88
2022/07/04 02:35:33;;;;;;;3.75;1.60;;;;;;;23.22;47.44;99587.78;4362951;32;34753;-88
2022/07/04 02:38:01;;;;;;;3.58;1.45;;;;;;;23.39;46.96;99592.78;4357578;32;33801;-88
2022/07/04 02:40:31;;;;;;;3.85;1.73;;;;;;;23.29;47.54;99591.69;4357801;32;33254;-87
2022/07/04 02:43:00;;;;;;;2.55;1.42;;;;;;;23.29;47.60;99591.69;4357722;32;32896;-88
2022/07/04 02:45:29;;;;;;;3.33;2.10;;;;;;;23.22;47.94;99595.72;4357430;32;34355;-88
2022/07/04 02:47:58;;;;;;;2.85;1.67;;;;;;;23.37;47.28;99594.69;4362804;32;34362;-88
2022/07/04 02:50:26;;;;;;;4.00;1.65;;;;;;;23.47;47.23;99602.00;4357325;32;33368;-88
2022/07/04 02:52:55;;;;;;;2.08;1.48;;;;;;;23.33;47.23;99597.63;4357519;32;34563;-88
2022/07/04 02:55:24;;;;;;;1.95;1.27;;;;;;;23.39;47.09;99607.81;4357323;32;33587;-88
2022/07/04 02:57:54;;;;;;;3.22;1.83;;;;;;;23.28;47.35;99600.59;4357715;32;34495;-88
2022/07/04 03:00:25;;;;;;;3.30;1.58;;;;;;;23.49;46.62;99613.34;4362511;32;34841;-88
2022/07/04 03:02:54;;;;;;;3.20;1.62;;;;;;;23.46;46.96;99609.06;4357157;32;33820;-88
2022/07/04 03:05:23;;;;;;;2.75;1.42;;;;;;;23.46;47.16;99609.06;4357129;32;33856;-88
2022/07/04 03:07:52;;;;;;;3.33;1.60;;;;;;;23.49;47.36;99602.75;4357279;32;34227;-88
2022/07/04 03:10:21;;;;;;;3.62;1.70;;;;;;;23.58;46.98;99610.91;4356930;32;33389;-88
2022/07/04 03:12:50;;;;;;;3.55;1.77;;;;;;;23.59;47.09;99601.16;4345709;32;33287;-88
2022/07/04 03:15:20;;;;;;;3.58;1.50;;;;;;;23.53;47.45;99599.75;4363283;32;33642;-88
2022/07/04 03:17:49;;;;;;;3.95;2.05;;;;;;;23.56;47.57;99604.87;4357439;32;33381;-88
2022/07/04 03:20:18;;;;;;;4.12;1.80;;;;;;;23.54;47.97;99609.41;4357791;32;33014;-88
2022/07/04 03:22:46;;;;;;;2.53;1.40;;;;;;;23.67;47.51;99606.75;4367009;32;33838;-87
2022/07/04 03:25:15;;;;;;;2.75;1.60;;;;;;;23.70;47.49;99616.31;4372009;32;33986;-88
2022/07/04 03:27:44;;;;;;;2.95;1.35;;;;;;;23.69;47.62;99615.47;4377658;32;33470;-88
2022/07/04 03:30:13;;;;;;;3.17;1.42;;;;;;;23.90;47.62;99613.16;4372138;32;33173;-88
2022/07/04 03:32:43;;;;;;;4.18;1.70;;;;;;;23.87;47.52;99612.50;4363048;32;33129;-88
2022/07/04 03:35:12;;;;;;;2.50;1.33;;;;;;;23.91;48.15;99603.41;4357131;32;34128;-88
2022/07/04 03:37:41;;;;;;;3.12;1.80;;;;;;;23.89;47.90;99606.16;4359607;32;33676;-88
2022/07/04 03:40:11;;;;;;;3.47;1.60;;;;;;;23.96;47.38;99610.06;4362392;32;34063;-88
2022/07/04 03:42:40;;;;;;;3.28;1.77;;;;;;;24.08;47.24;99604.87;4357179;32;33741;-87
2022/07/04 03:45:10;;;;;;;3.55;1.70;;;;;;;24.01;47.05;99604.44;4356871;32;34695;-88
2022/07/04 03:47:41;;;;;;;3.72;1.77;;;;;;;23.98;47.51;99602.03;4357557;32;33191;-88
2022/07/04 03:50:11;;;;;;;3.47;1.62;;;;;;;24.02;47.90;99601.72;4357428;32;34007;-88
2022/07/04 03:52:40;;;;;;;2.72;1.75;;;;;;;24.04;47.63;99597.16;4361450;32;33299;-88
2022/07/04 03:55:10;;;;;;;3.17;1.65;;;;;;;24.09;47.33;99603.91;4361912;32;34068;-88
2022/07/04 03:57:39;;;;;;;2.17;1.33;;;;;;;23.99;47.50;99603.72;4358627;32;33985;-89
2022/07/04 04:00:09;;;;;;;3.53;1.52;;;;;;;24.22;47.03;99596.78;4356841;32;33248;-88
2022/07/04 04:02:39;;;;;;;2.83;1.42;;;;;;;24.20;47.53;99602.19;4343451;32;32135;-88
2022/07/04 04:05:30;;;;;;;3.17;1.77;;;;;;;24.25;47.77;99601.88;4357994;32;34467;-88
2022/07/04 04:08:00;;;;;;;3.30;1.55;;;;;;;24.31;46.98;99600.56;4362633;32;33377;-88
2022/07/04 04:10:31;;;;;;;2.22;1.23;;;;;;;24.47;46.94;99610.00;4362017;32;33655;-88
2022/07/04 04:13:00;;;;;;;2.83;1.67;;;;;;;24.49;46.50;99615.19;4357067;32;33556;-88
2022/07/04 04:15:29;;;;;;;2.95;1.90;;;;;;;24.48;46.52;99610.88;4357757;32;33694;-88
2022/07/04 04:17:57;;;;;;;2.45;1.48;;;;;;;24.52;47.76;99614.13;4356766;32;33565;-88
2022/07/04 04:20:27;;;;;;;4.07;1.60;;;;;;;24.56;47.64;99607.66;4356820;32;34062;-88
2022/07/04 04:22:56;;;;;;;2.28;1.48;;;;;;;24.78;47.58;99610.44;4375809;32;33292;-88
2022/07/04 04:25:25;;;;;;;2.72;1.70;;;;;;;24.91;47.34;99613.00;4371801;32;34729;-88
2022/07/04 04:27:54;;;;;;;6.22;1.48;;;;;;;25.00;47.44;99612.34;4371888;32;33547;-88
2022/07/04 04:30:23;;;;;;;2.60;1.27;;;;;;;25.16;46.49;99622.66;4371914;32;33388;-88
2022/07/04 04:32:51;;;;;;;2.95;1.62;;;;;;;25.16;45.00;99614.69;4348534;32;32152;-88
2022/07/04 04:35:20;;;;;;;4.20;1.80;;;;;;;25.32;45.26;99611.75;4360893;32;33697;-87
2022/07/04 04:37:50;;;;;;;2.62;1.50;;;;;;;25.39;45.00;99615.62;4356576;32;33541;-88
2022/07/04 04:40:21;;;;;;;4.18;1.48;;;;;;;25.28;44.94;99618.28;4356455;32;32718;-88
2022/07/04 04:42:50;;;;;;;2.42;1.40;;;;;;;25.74;43.24;99614.75;4356838;32;33577;-88
2022/07/04 04:45:19;;;;;;;3.00;1.58;;;;;;;25.85;43.07;99613.91;4356745;32;33550;-88
2022/07/04 04:47:48;;;;;;;2.22;1.40;;;;;;;26.23;43.19;99605.59;4362438;32;33662;-88
2022/07/04 04:50:17;;;;;;;2.85;1.58;;;;;;;26.82;41.43;99607.09;4356920;32;33264;-88
2022/07/04 04:52:45;;;;;;;4.32;2.30;;;;;;;27.76;39.79;99602.72;4356803;32;33183;-88
2022/07/04 04:55:15;;;;;;;3.42;1.62;;;;;;;28.48;37.19;99601.81;4356600;32;33842;-88
2022/07/04 04:57:44;;;;;;;1.77;1.25;;;;;;;29.08;36.42;99592.91;4356935;32;34418;-88
2022/07/04 05:00:14;;;;;;;3.67;1.87;;;;;;;29.96;35.04;99601.59;4370040;32;32062;-88
2022/07/04 05:02:43;;;;;;;4.22;1.67;;;;;;;30.83;33.99;99600.31;4368646;32;33921;-88
2022/07/04 05:05:12;;;;;;;6.62;1.27;;;;;;;31.52;32.96;99598.72;4356750;32;33986;-88
2022/07/04 05:07:40;;;;;;;4.60;1.60;;;;;;;32.14;31.94;99603.09;4341924;32;33635;-88
2022/07/04 05:10:10;;;;;;;4.15;1.33;;;;;;;32.53;31.08;99608.00;4342057;33;33293;-88
2022/07/04 05:12:40;;;;;;;2.40;1.15;;;;;;;32.71;30.09;99609.53;4341914;33;35897;-89
2022/07/04 05:15:10;;;;;;;2.85;1.73;;;;;;;32.58;30.05;99608.34;4347213;33;35649;-88
2022/07/04 05:17:39;;;;;;;3.33;1.35;;;;;;;32.25;30.86;99602.81;4328164;33;33361;-88
2022/07/04 05:20:09;;;;;;;2.87;1.52;;;;;;;32.02;31.19;99619.50;4341661;33;32864;-87
2022/07/04 05:22:38;;;;;;;3.53;1.33;;;;;;;31.98;31.73;99612.78;4341349;33;34275;-88
2022/07/04 05:25:07;;;;;;;2.97;1.50;;;;;;;31.78;31.34;99611.31;4341856;33;33989;-88
2022/07/04 05:27:37;;;;;;;3.33;1.70;;;;;;;31.73;32.03;99621.69;4347003;33;33236;-88
2022/07/04 05:30:08;;;;;;;1.65;1.08;;;;;;;31.57;32.22;99617.03;4341570;33;33981;-88
2022/07/04 05:32:39;;;;;;;2.95;1.48;;;;;;;31.61;31.40;99615.72;4348639;32;33171;-88
2022/07/04 05:35:08;;;;;;;4.20;2.10;;;;;;;31.57;31.50;99617.03;4356489;32;33432;-88
2022/07/04 05:37:37;;;;;;;3.30;1.42;;;;;;;31.56;31.40;99612.69;4342541;32;33508;-88
2022/07/04 05:40:07;;;;;;;3.47;1.45;;;;;;;31.23;32.48;99612.37;4356556;32;33250;-88
2022/07/04 05:42:35;;;;;;;2.75;1.33;;;;;;;31.30;32.63;99616.12;4376772;32;33752;-88
2022/07/04 05:45:07;;;;;;;3.10;1.30;;;;;;;31.12;32.48;99617.97;4373441;32;34034;-89
2022/07/04 05:47:36;;;;;;;2.90;1.40;;;;;;;31.12;32.87;99616.16;4357499;32;32819;-88
2022/07/04 05:50:05;;;;;;;3.10;1.42;;;;;;;30.89;33.48;99615.78;4371342;32;33254;-88
2022/07/04 05:52:34;;;;;;;2.55;1.20;;;;;;;31.24;33.19;99625.66;4371038;32;33396;-88
2022/07/04 05:55:03;;;;;;;3.53;1.33;;;;;;;31.36;32.79;99620.84;4376658;32;34611;-88
2022/07/04 05:57:32;;;;;;;2.17;1.12;;;;;;;31.20;32.77;99624.25;4357664;32;32732;-88
2022/07/04 06:00:01;;;;;;;2.70;1.30;;;;;;;31.49;32.75;99623.19;4370939;32;33373;-89
2022/07/04 06:02:34;;;;;;;2.75;1.42;;;;;;;31.39;32.29;99627.78;4363926;32;34084;-88
2022/07/04 06:05:03;;;;;;;2.42;1.58;;;;;;;31.43;31.28;99619.25;4356045;32;33473;-88
2022/07/04 06:07:33;;;;;;;3.12;1.52;;;;;;;30.93;32.39;99621.66;4347778;32;33856;-89
2022/07/04 06:10:02;;;;;;;3.10;1.50;;;;;;;30.93;31.34;99624.34;4348559;33;33692;-88
2022/07/04 06:12:30;;;;;;;2.50;1.23;;;;;;;30.08;33.58;99627.16;4347308;32;34873;-88
2022/07/04 06:14:59;;;;;;;3.30;1.52;;;;;;;30.11;33.30;99623.38;4357202;32;33808;-88
2022/07/04 06:17:28;;;;;;;2.53;1.30;;;;;;;30.21;32.62;99624.16;4355681;32;34208;-88
2022/07/04 06:19:58;;;;;;;2.83;1.58;;;;;;;30.01;33.44;99626.09;4356160;32;32980;-88
2022/07/04 06:22:27;;;;;;;2.78;1.40;;;;;;;30.01;33.35;99620.75;4360484;32;33274;-87
2022/07/04 06:24:56;;;;;;;3.15;1.60;;;;;;;29.46;34.63;99612.56;4355223;32;34635;-87
2022/07/04 06:27:25;;;;;;;3.00;1.35;;;;;;;29.61;34.70;99616.47;4353986;32;34800;-88
2022/07/04 06:29:54;;;;;;;3.95;1.70;;;;;;;29.82;34.61;99623.47;4355510;32;33583;-87
2022/07/04 06:32:23;;;;;;;2.42;1.42;;;;;;;29.71;34.71;99613.78;4355448;32;33410;-88
2022/07/04 06:37:44;;;;;;;3.65;1.48;;;;;;;29.93;33.76;99620.63;4360482;32;34257;-87
2022/07/04 06:40:13;;;;;;;1.92;1.23;;;;;;;30.06;33.61;99633.66;4355542;32;34825;-88
2022/07/04 06:42:42;;;;;;;4.82;1.37;;;;;;;30.07;33.24;99628.16;4368232;32;34642;-88
2022/07/04 06:45:11;;;;;;;3.70;1.35;;;;;;;29.69;34.40;99627.28;4371721;32;34785;-87
2022/07/04 06:47:40;;;;;;;3.22;1.40;;;;;;;29.99;33.55;99626.22;4360191;32;33725;-88
2022/07/04 06:50:09;;;;;;;3.37;1.58;;;;;;;29.85;34.24;99612.50;4360942;32;33633;-87
2022/07/04 06:53:00;;;;;;;3.42;1.52;;;;;;;29.97;34.24;99622.84;4342845;32;32484;-87
2022/07/04 06:55:29;;;;;;;2.40;1.20;;;;;;;30.19;33.02;99618.94;4355072;32;33655;-87
2022/07/04 06:57:58;;;;;;;3.40;2.05;;;;;;;30.28;33.40;99627.13;4354537;32;33951;-87
2022/07/04 07:00:30;;;;;;;3.00;1.40;;;;;;;30.30;33.27;99617.09;4343400;32;32218;-87
2022/07/04 07:02:59;;;;;;;1.95;1.20;;;;;;;30.57;33.00;99618.94;4344964;32;33593;-87
2022/07/04 07:05:31;;;;;;;3.42;1.60;;;;;;;30.65;31.83;99623.53;4360811;32;35947;-87
2022/07/04 07:08:21;;;;;;;4.30;1.17;;;;;;;30.47;32.75;99624.34;4360680;32;34450;-87
2022/07/04 07:10:50;;;;;;;10.45;1.60;;;;;;;30.67;32.16;99618.88;4357185;32;32729;-87
2022/07/04 07:13:19;;;;;;;2.67;1.40;;;;;;;30.42;32.42;99621.25;4356413;32;33768;-87
2022/07/04 07:15:48;;;;;;;1.85;1.20;;;;;;;30.68;31.83;99626.75;4357332;32;35240;-88
2022/07/04 07:18:17;;;;;;;3.05;1.60;;;;;;;30.74;31.90;99633.34;4357107;32;34057;-88
2022/07/04 07:20:46;;;;;;;3.45;1.40;;;;;;;30.69;30.79;99628.44;4363141;32;33560;-88
2022/07/04 07:23:14;;;;;;;3.70;1.58;;;;;;;30.89;30.96;99626.50;4355105;32;34503;-87
2022/07/04 07:25:45;;;;;;;2.47;1.37;;;;;;;31.09;30.87;99616.44;4357093;32;34016;-87
2022/07/04 07:28:14;;;;;;;2.25;1.12;;;;;;;30.79;30.63;99623.84;4354976;32;32133;-87
2022/07/04 07:30:43;;;;;;;2.92;1.60;;;;;;;30.98;30.04;99617.53;4356801;32;33209;-88
2022/07/04 07:33:12;;;;;;;2.30;1.10;;;;;;;31.14;29.90;99624.88;4358516;32;33630;-87
2022/07/04 07:35:41;;;;;;;3.03;1.35;;;;;;;30.85;30.53;99630.47;4342287;32;33328;-86
2022/07/04 07:38:09;;;;;;;2.42;1.23;;;;;;;30.81;30.80;99624.53;4350667;32;34413;-87
2022/07/04 07:40:38;;;;;;;1.70;1.10;;;;;;;31.04;29.66;99616.06;4359749;32;34002;-86
2022/07/04 07:43:09;;;;;;;1.20;0.80;;;;;;;30.91;30.01;99616.47;4357195;32;33991;-88
2022/07/04 07:45:37;;;;;;;1.48;0.85;;;;;;;31.18;29.17;99620.06;4362186;32;33107;-88
2022/07/04 07:48:07;;;;;;;1.58;0.90;;;;;;;31.13;29.49;99619.69;4357732;32;34558;-88
2022/07/04 07:50:36;;;;;;;1.55;0.93;;;;;;;31.19;28.56;99616.38;4357143;32;34465;-88
2022/07/04 07:53:05;;;;;;;1.77;0.90;;;;;;;31.51;28.14;99612.28;4357598;32;34954;-88
2022/07/04 07:55:34;;;;;;;1.77;0.90;;;;;;;31.57;28.27;99617.03;4356902;32;33725;-87
2022/07/04 07:58:05;;;;;;;1.00;0.65;;;;;;;31.71;28.15;99616.47;4358239;32;34007;-88
2022/07/04 08:00:35;;;;;;;0.93;0.70;;;;;;;31.60;26.85;99612.19;4362226;32;33170;-87
2022/07/04 08:06:11;;;;;;;1.30;0.47;;;;;;;31.59;26.89;99607.00;4348247;32;34806;-87
2022/07/04 08:08:41;;;;;;;1.58;0.80;;;;;;;31.53;26.76;99612.97;4356548;32;35010;-87
2022/07/04 08:11:10;;;;;;;0.60;0.50;;;;;;;31.72;26.50;99606.56;4358365;32;33547;-87
2022/07/04 08:13:39;;;;;;;0.88;0.55;;;;;;;31.70;27.09;99601.34;4356858;32;33852;-88
2022/07/04 08:16:10;;;;;;;1.50;0.65;;;;;;;31.77;24.98;99599.72;4362684;32;33928;-88
2022/07/04 08:18:38;;;;;;;;;;;;;;;31.81;25.20;99600.25;4354637;32;33608;-87
2022/07/04 08:21:07;;;;;;;1.70;0.52;;;;;;;32.01;25.03;99601.72;4356438;32;33287;-88
2022/07/04 08:23:41;;;;;;;1.20;0.80;;;;;;;31.70;25.61;99598.66;4356408;32;33772;-88
2022/07/04 08:26:31;;;;;;;1.07;0.73;;;;;;;32.04;25.26;99581.75;4356420;32;33732;-88
2022/07/04 08:28:59;;;;;;;1.95;0.73;;;;;;;31.81;26.24;99595.72;4356099;32;33768;-88
2022/07/04 08:31:29;;;;;;;0.80;0.60;;;;;;;32.30;24.80;99595.97;4346283;32;31814;-87
2022/07/04 08:34:18;;;;;;;2.03;1.15;;;;;;;31.97;25.00;99596.81;4358831;32;34448;-88
2022/07/04 08:36:47;;;;;;;2.95;1.08;;;;;;;32.41;24.58;99602.88;4355372;32;33759;-88
2022/07/04 08:39:16;;;;;;;1.05;0.43;;;;;;;32.54;24.81;99604.28;4354225;32;33859;-87
2022/07/04 08:41:45;;;;;;;2.00;0.93;;;;;;;32.29;24.70;99605.03;4355980;32;31680;-88
2022/07/04 08:44:14;;;;;;;0.90;0.70;;;;;;;32.37;24.65;99603.38;4354954;32;34018;-88
2022/07/04 08:46:44;;;;;;;0.77;0.50;;;;;;;32.39;24.91;99596.84;4361934;32;33411;-88
2022/07/04 08:49:18;;;;;;;0.73;0.50;;;;;;;32.68;22.85;99596.44;4356878;32;32895;-87
2022/07/04 08:51:54;;;;;;;1.15;0.50;;;;;;;32.42;24.21;99595.66;4356782;32;34095;-89
2022/07/04 08:59:58;;;;;;;2.78;0.47;;;;;;;32.05;24.45;99604.94;4356536;32;34657;-87
2022/07/04 09:02:29;;;;;;;0.70;0.60;;;;;;;32.07;24.73;99614.50;4360085;32;33303;-89
2022/07/04 09:04:59;;;;;;;1.25;0.55;;;;;;;32.06;25.15;99599.41;4361830;32;33723;-87
2022/07/04 09:07:29;;;;;;;1.15;0.55;;;;;;;32.23;24.91;99600.28;4355756;32;34644;-87
2022/07/04 09:09:58;;;;;;;1.00;0.60;;;;;;;32.09;25.22;99604.44;4356614;32;33638;-88
2022/07/04 09:12:27;;;;;;;1.02;0.60;;;;;;;32.26;24.88;99597.31;4370040;32;33321;-88
2022/07/04 09:15:10;;;;;;;1.92;0.80;;;;;;;32.27;25.34;99600.81;4371489;32;33611;-88
2022/07/04 09:17:41;;;;;;;1.02;0.60;;;;;;;32.46;25.45;99610.47;4363287;32;32781;-88
2022/07/04 09:20:15;;;;;;;0.52;0.43;;;;;;;32.31;25.04;99600.34;4360991;32;34155;-87
2022/07/04 09:22:44;;;;;;;2.33;0.70;;;;;;;32.22;25.11;99600.47;4356473;32;34052;-88
2022/07/04 09:25:15;;;;;;;0.70;0.62;;;;;;;32.33;25.38;99604.69;4356710;32;33424;-89
2022/07/04 09:27:47;;;;;;;1.25;0.77;;;;;;;32.23;25.35;99600.28;4356476;32;34799;-87
2022/07/04 09:30:20;;;;;;;2.60;0.80;;;;;;;32.68;25.26;99598.28;4356231;32;33138;-88
2022/07/04 09:32:51;;;;;;;;;;;;;;;32.52;26.24;99599.06;4361686;32;33172;-88
2022/07/04 09:35:22;;;;;;;2.28;1.10;;;;;;;32.82;24.89;99594.94;4358333;32;34964;-88
2022/07/04 09:37:51;;;;;;;;;;;;;;;32.59;24.70;99597.41;4355366;32;34771;-88
2022/07/04 09:40:25;;;;;;;1.23;0.73;;;;;;;33.02;24.55;99590.09;4354945;32;34311;-88
2022/07/04 09:42:55;;;;;;;0.98;0.55;;;;;;;32.98;23.54;99588.72;4354896;32;33393;-87
2022/07/04 09:45:24;;;;;;;1.10;0.57;;;;;;;33.14;24.29;99582.56;4353030;32;33458;-87
2022/07/04 09:47:57;;;;;;;0.88;0.60;;;;;;;33.25;24.49;99584.91;4361783;32;34716;-87
2022/07/04 09:50:28;;;;;;;2.05;0.70;;;;;;;33.23;23.61;99588.78;4342342;32;33763;-88
2022/07/04 09:52:58;;;;;;;1.73;0.90;;;;;;;33.15;24.51;99593.16;4357042;32;33266;-87
2022/07/04 09:55:29;;;;;;;1.12;0.60;;;;;;;33.23;23.78;99591.47;4351408;32;35590;-88
2022/07/04 09:57:59;;;;;;;1.00;0.80;;;;;;;33.30;24.62;99582.56;4352778;32;33961;-87
2022/07/04 10:00:30;;;;;;;3.15;1.12;;;;;;;33.27;24.15;99574.84;4359505;32;33662;-88
2022/07/04 10:03:17;;;;;;;1.98;1.02;;;;;;;33.19;24.91;99574.81;4356024;32;34174;-88
2022/07/04 10:05:47;;;;;;;1.77;1.10;;;;;;;33.06;25.22;99567.28;4352661;32;34440;-88
2022/07/04 10:08:22;;;;;;;1.58;0.90;;;;;;;33.31;24.64;99573.47;4341255;33;34422;-88
2022/07/04 10:10:51;;;;;;;1.58;0.90;;;;;;;33.25;24.94;99567.94;4341412;33;33547;-88
2022/07/04 10:13:19;;;;;;;1.48;0.70;;;;;;;33.15;24.29;99566.28;4353959;32;33277;-88
2022/07/04 10:15:48;;;;;;;3.33;0.85;;;;;;;33.11;25.05;99561.41;4360854;32;33868;-87
2022/07/04 10:18:20;;;;;;;1.30;0.82;;;;;;;33.59;24.54;99567.75;4355729;32;35092;-88
2022/07/04 10:20:50;;;;;;;1.60;0.90;;;;;;;33.60;23.37;99566.72;4355641;32;34536;-88
2022/07/04 10:23:19;;;;;;;1.85;1.00;;;;;;;33.69;23.18;99552.25;4355614;32;34034;-88
2022/07/04 10:25:53;;;;;;;1.05;0.80;;;;;;;33.64;23.68;99556.47;4360943;32;34093;-87
2022/07/04 10:28:22;;;;;;;1.80;1.33;;;;;;;33.82;23.75;99553.56;4360911;32;34200;-88
2022/07/04 10:30:53;;;;;;;1.25;0.80;;;;;;;33.80;23.78;99540.25;4342105;32;33350;-88
2022/07/04 10:33:26;;;;;;;1.85;0.75;;;;;;;34.18;22.53;99532.38;4356550;32;33277;-87
2022/07/04 10:35:57;;;;;;;1.20;0.68;;;;;;;33.99;22.99;99539.84;4355131;32;35432;-88
2022/07/04 10:38:27;;;;;;;2.03;0.95;;;;;;;34.32;22.33;99542.41;4355440;32;34666;-88
2022/07/04 10:40:57;;;;;;;1.20;0.68;;;;;;;34.29;21.47;99528.44;4361744;32;34083;-87
2022/07/04 10:44:00;;;;;;;1.13;0.70;;;;;;;34.25;22.00;99530.66;4354638;32;34265;-88
2022/07/04 10:46:46;;;;;;;1.15;0.55;;;;;;;34.39;22.23;99529.91;4354280;32;34301;-87
2022/07/04 10:49:23;;;;;;;1.85;0.85;;;;;;;34.63;22.93;99525.41;4354835;32;34034;-89
2022/07/04 10:51:54;;;;;;;0.77;0.45;;;;;;;34.63;20.75;99523.53;4355373;32;34461;-88
2022/07/04 10:54:30;;;;;;;0.75;0.60;;;;;;;34.81;21.02;99519.69;4354592;32;33916;-88
2022/07/04 10:57:10;;;;;;;1.12;0.40;;;;;;;35.03;19.92;99516.13;4355015;32;33816;-88
2022/07/04 10:59:39;;;;;;;1.12;0.60;;;;;;;34.93;20.37;99518.25;4362978;32;33955;-88
2022/07/04 11:02:28;;;;;;;1.65;0.90;;;;;;;34.92;20.68;99523.84;4357003;32;33550;-89
2022/07/04 11:05:01;;;;;;;1.52;0.88;;;;;;;35.00;20.23;99510.28;4356845;32;34076;-89
2022/07/04 11:07:56;;;;;;;0.82;0.47;;;;;;;34.69;20.66;99513.91;4356773;32;34617;-89
2022/07/04 11:10:28;;;;;;;1.00;0.57;;;;;;;34.82;20.51;99508.75;4355871;32;34671;-88
2022/07/04 11:13:24;;;;;;;0.85;0.60;;;;;;;34.80;20.41;99508.09;4356411;32;33873;-87
2022/07/04 11:16:06;;;;;;;1.02;0.60;;;;;;;35.10;20.43;99504.66;4293417;33;33595;-88
2022/07/04 11:18:45;;;;;;;0.62;0.57;;;;;;;35.24;20.34;99498.44;4292903;33;33855;-88
2022/07/04 11:21:20;;;;;;;0.88;0.68;;;;;;;35.33;20.16;99489.25;4300675;33;33844;-87
2022/07/04 11:23:54;;;;;;;1.95;0.77;;;;;;;35.10;20.39;99496.56;4295881;33;33742;-89
2022/07/04 11:26:26;;;;;;;0.95;0.70;;;;;;;35.35;20.36;99492.59;4282366;33;31972;-88
2022/07/04 11:28:55;;;;;;;1.35;0.80;;;;;;;35.43;20.60;99487.09;4294115;33;33232;-88
2022/07/04 11:31:42;;;;;;;1.55;0.40;;;;;;;35.48;19.52;99476.59;4294032;33;33525;-88
2022/07/04 11:34:12;;;;;;;0.55;0.55;;;;;;;35.62;18.68;99472.25;4287472;33;33931;-88
2022/07/04 11:36:43;;;;;;;1.87;1.05;;;;;;;36.00;19.16;99472.06;4297780;33;33473;-89
2022/07/04 11:39:14;;;;;;;1.02;0.55;;;;;;;36.26;18.27;99468.84;4297426;33;34817;-89
2022/07/04 11:47:22;;;;;;;;;;;;;;;35.81;18.22;99459.16;4283758;33;32868;-89
2022/07/04 11:49:52;;;;;;;0.75;0.60;;;;;;;36.20;18.88;99450.72;4296472;33;35084;-88
2022/07/04 11:52:24;;;;;;;0.73;0.52;;;;;;;36.17;18.87;99450.25;4339988;32;33593;-88
2022/07/04 11:55:15;;;;;;;1.75;0.80;;;;;;;36.36;17.91;99446.91;4358306;32;33901;-88
2022/07/04 11:57:46;;;;;;;0.40;0.30;;;;;;;36.41;17.14;99443.63;4363155;32;33511;-88
2022/07/04 12:00:16;;;;;;;0.95;0.55;;;;;;;36.85;16.01;99446.13;4357101;32;33763;-88
2022/07/04 12:02:47;;;;;;;1.05;0.60;;;;;;;36.66;16.79;99441.41;4342079;33;33747;-89
2022/07/04 12:05:17;;;;;;;1.65;0.70;;;;;;;36.56;16.34;99451.66;4341932;33;33900;-87
2022/07/04 12:07:48;;;;;;;0.90;0.50;;;;;;;36.61;17.24;99446.53;4342202;33;33600;-87
2022/07/04 12:10:37;;;;;;;1.10;0.45;;;;;;;36.95;17.93;99448.47;4341106;33;34579;-88